Time,TemperatureF,DewpointF,PressureIn,WindDirection,WindDirectionDegrees,WindSpeedMPH,WindSpeedGustMPH,Humidity,HourlyPrecipIn,Conditions,Clouds,dailyrainin,SolarRadiationWatts/m^2,SoftwareType,DateUTC
2013-05-20 00:00:00,60.4,56.5,29.48,East,84,2.0,2.0,87,0.00,,,0.52,0,Wunderground v.1.15,2013-05-20 05:00:00,
2013-05-20 00:10:00,60.4,56.5,29.47,East,82,0.0,0.0,87,0.00,,,0.00,0,Wunderground v.1.15,2013-05-20 05:10:00,
2013-05-20 00:20:00,60.2,56.3,29.47,East,82,0.0,0.0,87,0.00,,,0.00,0,Wunderground v.1.15,2013-05-20 05:20:00,
2013-05-20 00:30:00,60.1,56.5,29.47,East,83,0.0,0.0,88,0.00,,,0.00,0,Wunderground v.1.15,2013-05-20 05:30:00,
2013-05-20 00:40:00,60.1,56.8,29.49,SW,219,0.0,0.0,89,0.00,,,0.00,0,Wunderground v.1.15,2013-05-20 05:40:00,
2013-05-20 00:50:00,60.2,56.9,29.52,SSW,209,2.0,6.0,89,0.00,,,0.00,0,Wunderground v.1.15,2013-05-20 05:50:00,
2013-05-20 01:00:00,60.7,57.4,29.52,SW,217,4.0,4.0,89,0.00,,,0.00,0,Wunderground v.1.15,2013-05-20 06:00:00,
2013-05-20 01:10:00,60.5,56.9,29.52,SSW,192,0.0,0.0,88,0.00,,,0.00,0,Wunderground v.1.15,2013-05-20 06:10:00,
2013-05-20 01:20:00,60.2,56.6,29.53,South,190,0.0,0.0,88,0.00,,,0.00,0,Wunderground v.1.15,2013-05-20 06:20:00,
2013-05-20 01:30:00,59.9,56.3,29.53,South,191,0.0,0.0,88,0.00,,,0.00,0,Wunderground v.1.15,2013-05-20 06:30:00,
2013-05-20 01:40:00,59.6,56.0,29.52,South,191,0.0,0.0,88,0.00,,,0.00,0,Wunderground v.1.15,2013-05-20 06:40:00,
2013-05-20 01:50:00,59.3,56.1,29.50,South,191,0.0,0.0,89,0.00,,,0.00,0,Wunderground v.1.15,2013-05-20 06:50:00,
2013-05-20 02:00:00,59.0,55.8,29.50,South,191,0.0,0.0,89,0.00,,,0.00,0,Wunderground v.1.15,2013-05-20 07:00:00,
2013-05-20 02:10:00,58.9,56.0,29.50,South,191,0.0,0.0,90,0.00,,,0.00,0,Wunderground v.1.15,2013-05-20 07:10:00,
2013-05-20 02:20:00,59.2,56.6,29.50,South,181,0.0,0.0,91,0.00,,,0.00,0,Wunderground v.1.15,2013-05-20 07:20:00,
2013-05-20 02:30:00,59.0,56.1,29.50,East,81,0.0,0.0,90,0.00,,,0.00,0,Wunderground v.1.15,2013-05-20 07:30:00,
2013-05-20 02:40:00,58.9,56.3,29.50,East,101,0.0,0.0,91,0.00,,,0.00,0,Wunderground v.1.15,2013-05-20 07:40:00,
2013-05-20 02:50:00,58.7,56.1,29.49,ESE,102,0.0,0.0,91,0.00,,,0.00,0,Wunderground v.1.15,2013-05-20 07:50:00,
2013-05-20 03:00:00,58.6,56.0,29.49,ESE,102,0.0,0.0,91,0.00,,,0.00,0,Wunderground v.1.15,2013-05-20 08:00:00,
2013-05-20 03:10:00,58.3,55.7,29.50,ESE,102,0.0,0.0,91,0.00,,,0.00,0,Wunderground v.1.15,2013-05-20 08:10:00,
2013-05-20 03:20:00,58.1,55.5,29.51,ESE,102,0.0,0.0,91,0.00,,,0.00,0,Wunderground v.1.15,2013-05-20 08:20:00,
2013-05-20 03:30:00,58.0,55.4,29.51,ESE,102,0.0,0.0,91,0.00,,,0.00,0,Wunderground v.1.15,2013-05-20 08:30:00,
2013-05-20 03:40:00,57.8,55.2,29.51,ESE,102,0.0,0.0,91,0.00,,,0.00,0,Wunderground v.1.15,2013-05-20 08:40:00,
2013-05-20 03:50:00,57.5,54.9,29.52,ESE,102,0.0,0.0,91,0.00,,,0.00,0,Wunderground v.1.15,2013-05-20 08:50:00,
2013-05-20 04:00:00,57.3,54.7,29.52,ESE,102,0.0,0.0,91,0.00,,,0.00,0,Wunderground v.1.15,2013-05-20 09:00:00,
2013-05-20 04:10:00,57.3,54.7,29.51,ESE,102,0.0,0.0,91,0.00,,,0.00,0,Wunderground v.1.15,2013-05-20 09:10:00,
2013-05-20 04:20:00,57.3,54.4,29.51,SSW,202,0.0,0.0,90,0.00,,,0.00,0,Wunderground v.1.15,2013-05-20 09:20:00,
2013-05-20 04:30:00,57.2,54.3,29.51,SSW,201,0.0,0.0,90,0.00,,,0.00,0,Wunderground v.1.15,2013-05-20 09:30:00,
2013-05-20 04:40:00,57.0,53.8,29.50,SSW,207,0.0,0.0,89,0.00,,,0.00,0,Wunderground v.1.15,2013-05-20 09:40:00,
2013-05-20 04:50:00,56.9,53.7,29.50,South,191,0.0,0.0,89,0.00,,,0.00,0,Wunderground v.1.15,2013-05-20 09:50:00,
2013-05-20 05:00:00,56.7,53.2,29.50,SSW,210,0.0,0.0,88,0.00,,,0.00,0,Wunderground v.1.15,2013-05-20 10:00:00,
2013-05-20 05:10:00,56.7,53.2,29.51,South,171,0.0,0.0,88,0.00,,,0.00,0,Wunderground v.1.15,2013-05-20 10:10:00,
2013-05-20 05:20:00,56.9,53.1,29.52,SSW,207,2.0,2.0,87,0.00,,,0.00,0,Wunderground v.1.15,2013-05-20 10:20:00,
2013-05-20 05:30:00,57.0,52.9,29.52,SW,227,2.0,3.0,86,0.00,,,0.00,0,Wunderground v.1.15,2013-05-20 10:30:00,
2013-05-20 05:40:00,57.2,52.7,29.52,SSW,211,3.0,9.0,85,0.00,,,0.00,0,Wunderground v.1.15,2013-05-20 10:40:00,
2013-05-20 05:50:00,57.3,52.8,29.53,SSW,209,3.0,3.0,85,0.00,,,0.00,0,Wunderground v.1.15,2013-05-20 10:50:00,
2013-05-20 06:00:00,57.5,52.7,29.53,SW,216,3.0,4.0,84,0.00,,,0.00,0,Wunderground v.1.15,2013-05-20 11:00:00,
2013-05-20 06:10:00,57.6,52.8,29.53,SW,223,2.0,3.0,84,0.00,,,0.00,0,Wunderground v.1.15,2013-05-20 11:10:00,
2013-05-20 06:20:00,58.0,53.2,29.54,WSW,238,3.0,5.0,84,0.00,,,0.00,0,Wunderground v.1.15,2013-05-20 11:20:00,
2013-05-20 06:30:00,58.3,53.5,29.54,SSW,212,3.0,4.0,84,0.00,,,0.00,12,Wunderground v.1.15,2013-05-20 11:30:00,
2013-05-20 06:40:00,58.4,53.6,29.55,SW,223,4.0,5.0,84,0.00,,,0.00,12,Wunderground v.1.15,2013-05-20 11:40:00,
2013-05-20 06:50:00,58.6,53.8,29.55,SW,217,5.0,5.0,84,0.00,,,0.00,18,Wunderground v.1.15,2013-05-20 11:50:00,
2013-05-20 07:00:00,58.7,53.9,29.55,SSW,211,5.0,9.0,84,0.00,,,0.00,44,Wunderground v.1.15,2013-05-20 12:00:00,
2013-05-20 07:10:00,58.9,54.4,29.56,SW,236,5.0,5.0,85,0.00,,,0.00,21,Wunderground v.1.15,2013-05-20 12:10:00,
2013-05-20 07:20:00,59.2,54.7,29.57,SW,232,6.0,6.0,85,0.00,,,0.00,37,Wunderground v.1.15,2013-05-20 12:20:00,
2013-05-20 07:30:00,59.5,55.3,29.57,SW,222,3.0,6.0,86,0.00,,,0.00,54,Wunderground v.1.15,2013-05-20 12:30:00,
2013-05-20 07:40:00,59.9,55.7,29.58,WSW,238,4.0,4.0,86,0.00,,,0.00,97,Wunderground v.1.15,2013-05-20 12:40:00,
2013-05-20 07:50:00,60.5,56.3,29.58,WSW,241,4.0,4.0,86,0.00,,,0.00,74,Wunderground v.1.15,2013-05-20 12:50:00,
2013-05-20 08:00:00,61.0,56.8,29.58,WNW,290,2.0,2.0,86,0.00,,,0.00,116,Wunderground v.1.15,2013-05-20 13:00:00,
2013-05-20 08:10:00,61.2,56.7,29.59,West,279,1.0,1.0,85,0.00,,,0.00,132,Wunderground v.1.15,2013-05-20 13:10:00,
2013-05-20 08:20:00,61.3,56.4,29.60,West,279,0.0,0.0,84,0.00,,,0.00,97,Wunderground v.1.15,2013-05-20 13:20:00,
2013-05-20 08:30:00,62.4,57.2,29.60,WSW,257,1.0,1.0,83,0.00,,,0.00,381,Wunderground v.1.15,2013-05-20 13:30:00,
2013-05-20 08:40:00,63.4,56.8,29.60,West,270,2.0,2.0,79,0.00,,,0.00,425,Wunderground v.1.15,2013-05-20 13:40:00,
2013-05-20 08:50:00,64.0,57.0,29.61,West,273,1.0,1.0,78,0.00,,,0.00,394,Wunderground v.1.15,2013-05-20 13:50:00,
2013-05-20 09:00:00,64.5,57.1,29.61,WSW,251,1.0,3.0,77,0.00,,,0.00,199,Wunderground v.1.15,2013-05-20 14:00:00,
2013-05-20 09:10:00,64.8,56.7,29.61,WSW,238,0.0,0.0,75,0.00,,,0.00,162,Wunderground v.1.15,2013-05-20 14:10:00,
2013-05-20 09:20:00,65.2,56.7,29.61,WSW,242,1.0,1.0,74,0.00,,,0.00,188,Wunderground v.1.15,2013-05-20 14:20:00,
2013-05-20 09:30:00,65.8,56.1,29.61,SW,223,1.0,1.0,71,0.00,,,0.00,636,Wunderground v.1.15,2013-05-20 14:30:00,
2013-05-20 09:40:00,66.3,56.2,29.62,SW,234,3.0,3.0,70,0.00,,,0.00,587,Wunderground v.1.15,2013-05-20 14:40:00,
2013-05-20 09:50:00,66.6,56.1,29.62,WSW,239,2.0,8.0,69,0.00,,,0.00,188,Wunderground v.1.15,2013-05-20 14:50:00,
2013-05-20 10:00:00,66.8,56.3,29.62,SW,231,2.0,2.0,69,0.00,,,0.00,462,Wunderground v.1.15,2013-05-20 15:00:00,
2013-05-20 10:10:00,66.9,55.6,29.62,SW,225,3.0,4.0,67,0.00,,,0.00,503,Wunderground v.1.15,2013-05-20 15:10:00,
2013-05-20 10:20:00,67.9,55.7,29.62,SW,225,4.0,4.0,65,0.00,,,0.00,791,Wunderground v.1.15,2013-05-20 15:20:00,
2013-05-20 10:30:00,68.3,55.2,29.62,SW,232,4.0,4.0,63,0.00,,,0.00,821,Wunderground v.1.15,2013-05-20 15:30:00,
2013-05-20 10:40:00,68.8,55.2,29.61,SW,215,4.0,4.0,62,0.00,,,0.00,817,Wunderground v.1.15,2013-05-20 15:40:00,
2013-05-20 10:50:00,68.8,55.7,29.61,SW,230,4.0,4.0,63,0.00,,,0.00,798,Wunderground v.1.15,2013-05-20 15:50:00,
2013-05-20 11:00:00,69.6,56.0,29.61,WSW,246,4.0,4.0,62,0.00,,,0.00,830,Wunderground v.1.15,2013-05-20 16:00:00,
2013-05-20 11:10:00,69.9,54.9,29.62,WNW,293,4.0,7.0,59,0.00,,,0.00,891,Wunderground v.1.15,2013-05-20 16:10:00,
2013-05-20 11:20:00,70.4,55.8,29.61,WSW,250,1.0,2.0,60,0.00,,,0.00,793,Wunderground v.1.15,2013-05-20 16:20:00,
2013-05-20 11:30:00,70.6,55.6,29.61,SW,229,1.0,5.0,59,0.00,,,0.00,889,Wunderground v.1.15,2013-05-20 16:30:00,
2013-05-20 11:40:00,71.1,55.1,29.62,SSW,196,3.0,5.0,57,0.00,,,0.00,891,Wunderground v.1.15,2013-05-20 16:40:00,
2013-05-20 11:50:00,71.1,53.6,29.63,SSW,194,4.0,4.0,54,0.00,,,0.00,954,Wunderground v.1.15,2013-05-20 16:50:00,
2013-05-20 12:00:00,71.8,55.3,29.63,SSW,192,3.0,5.0,56,0.00,,,0.00,965,Wunderground v.1.15,2013-05-20 17:00:00,
2013-05-20 12:10:00,72.0,54.9,29.62,SW,217,3.0,4.0,55,0.00,,,0.00,1060,Wunderground v.1.15,2013-05-20 17:10:00,
2013-05-20 12:20:00,72.3,56.7,29.62,SW,217,4.0,4.0,58,0.00,,,0.00,1039,Wunderground v.1.15,2013-05-20 17:20:00,
2013-05-20 12:30:00,72.1,54.5,29.62,SW,221,6.0,16.0,54,0.00,,,0.00,1023,Wunderground v.1.15,2013-05-20 17:30:00,
2013-05-20 12:40:00,73.0,56.4,29.62,SW,232,4.0,9.0,56,0.00,,,0.00,1049,Wunderground v.1.15,2013-05-20 17:40:00,
2013-05-20 12:50:00,73.2,55.6,29.62,SSW,204,6.0,12.0,54,0.00,,,0.00,1253,Wunderground v.1.15,2013-05-20 17:50:00,
2013-05-20 13:00:00,73.7,55.0,29.62,SW,219,6.0,16.0,52,0.00,,,0.00,225,Wunderground v.1.15,2013-05-20 18:00:00,
2013-05-20 13:10:00,73.7,55.0,29.61,SSW,207,8.0,8.0,52,0.00,,,0.00,1179,Wunderground v.1.15,2013-05-20 18:10:00,
2013-05-20 13:20:00,73.3,54.1,29.61,South,175,5.0,5.0,51,0.00,,,0.00,325,Wunderground v.1.15,2013-05-20 18:20:00,
2013-05-20 13:30:00,72.8,54.7,29.61,South,182,4.0,4.0,53,0.00,,,0.00,369,Wunderground v.1.15,2013-05-20 18:30:00,
2013-05-20 13:40:00,72.7,56.1,29.61,SW,219,5.0,5.0,56,0.00,,,0.00,299,Wunderground v.1.15,2013-05-20 18:40:00,
2013-05-20 13:50:00,74.7,56.4,29.60,SSW,212,5.0,5.0,53,0.00,,,0.00,1069,Wunderground v.1.15,2013-05-20 18:50:00,
2013-05-20 14:00:00,73.9,55.2,29.60,WSW,245,5.0,5.0,52,0.00,,,0.00,339,Wunderground v.1.15,2013-05-20 19:00:00,
2013-05-20 14:10:00,73.2,54.5,29.60,SW,229,6.0,9.0,52,0.00,,,0.00,313,Wunderground v.1.15,2013-05-20 19:10:00,
2013-05-20 14:20:00,74.9,55.6,29.60,SW,217,6.0,6.0,51,0.00,,,0.00,338,Wunderground v.1.15,2013-05-20 19:20:00,
2013-05-20 14:30:00,73.9,56.2,29.60,SSW,209,7.0,7.0,54,0.00,,,0.00,397,Wunderground v.1.15,2013-05-20 19:30:00,
2013-05-20 14:40:00,74.9,55.6,29.59,SW,221,7.0,7.0,51,0.00,,,0.00,244,Wunderground v.1.15,2013-05-20 19:40:00,
2013-05-20 14:50:00,75.6,55.1,29.59,SSW,206,9.0,9.0,49,0.00,,,0.00,243,Wunderground v.1.15,2013-05-20 19:50:00,
2013-05-20 15:00:00,75.1,55.2,29.59,SW,216,10.0,12.0,50,0.00,,,0.00,221,Wunderground v.1.15,2013-05-20 20:00:00,
2013-05-20 15:10:00,75.1,55.7,29.59,South,171,8.0,8.0,51,0.00,,,0.00,239,Wunderground v.1.15,2013-05-20 20:10:00,
2013-05-20 15:20:00,76.5,55.9,29.58,WSW,238,6.0,6.0,49,0.00,,,0.00,960,Wunderground v.1.15,2013-05-20 20:20:00,
2013-05-20 15:30:00,76.1,55.5,29.58,SSW,198,7.0,7.0,49,0.00,,,0.00,385,Wunderground v.1.15,2013-05-20 20:30:00,
2013-05-20 15:40:00,75.6,55.6,29.58,SSW,194,7.0,11.0,50,0.00,,,0.00,295,Wunderground v.1.15,2013-05-20 20:40:00,
2013-05-20 15:50:00,77.0,55.8,29.57,SW,219,8.0,8.0,48,0.00,,,0.00,974,Wunderground v.1.15,2013-05-20 20:50:00,
2013-05-20 16:00:00,77.4,55.0,29.57,WSW,237,9.0,9.0,46,0.00,,,0.00,278,Wunderground v.1.15,2013-05-20 21:00:00,
2013-05-20 16:10:00,77.4,55.6,29.57,SW,219,9.0,16.0,47,0.00,,,0.00,756,Wunderground v.1.15,2013-05-20 21:10:00,
2013-05-20 16:20:00,77.4,55.0,29.55,SW,219,10.0,13.0,46,0.00,,,0.00,724,Wunderground v.1.15,2013-05-20 21:20:00,
2013-05-20 16:30:00,77.7,55.3,29.55,WSW,249,9.0,15.0,46,0.00,,,0.00,617,Wunderground v.1.15,2013-05-20 21:30:00,
2013-05-20 16:40:00,76.7,55.5,29.55,SW,217,8.0,8.0,48,0.00,,,0.00,724,Wunderground v.1.15,2013-05-20 21:40:00,
2013-05-20 16:50:00,77.0,55.2,29.54,SSW,194,10.0,10.0,47,0.00,,,0.00,712,Wunderground v.1.15,2013-05-20 21:50:00,
2013-05-20 17:00:00,76.5,55.9,29.54,SSW,209,9.0,9.0,49,0.00,,,0.00,162,Wunderground v.1.15,2013-05-20 22:00:00,
2013-05-20 17:10:00,77.2,56.0,29.53,SW,232,9.0,9.0,48,0.00,,,0.00,650,Wunderground v.1.15,2013-05-20 22:10:00,
2013-05-20 17:20:00,77.0,55.8,29.52,SSW,208,9.0,15.0,48,0.00,,,0.00,666,Wunderground v.1.15,2013-05-20 22:20:00,
2013-05-20 17:30:00,77.6,55.2,29.52,SW,234,9.0,9.0,46,0.00,,,0.00,519,Wunderground v.1.15,2013-05-20 22:30:00,
2013-05-20 17:40:00,78.3,56.4,29.52,WSW,239,8.0,14.0,47,0.00,,,0.00,534,Wunderground v.1.15,2013-05-20 22:40:00,
2013-05-20 17:50:00,78.1,56.2,29.52,SSW,211,8.0,9.0,47,0.00,,,0.00,285,Wunderground v.1.15,2013-05-20 22:50:00,
2013-05-20 18:00:00,76.3,54.6,29.52,SW,228,11.0,12.0,47,0.00,,,0.00,192,Wunderground v.1.15,2013-05-20 23:00:00,
2013-05-20 18:10:00,76.8,55.6,29.51,SW,215,10.0,10.0,48,0.00,,,0.00,380,Wunderground v.1.15,2013-05-20 23:10:00,
2013-05-20 18:20:00,76.0,54.9,29.50,SW,233,8.0,8.0,48,0.00,,,0.00,63,Wunderground v.1.15,2013-05-20 23:20:00,
2013-05-20 18:30:00,74.9,55.0,29.50,SW,223,8.0,8.0,50,0.00,,,0.00,91,Wunderground v.1.15,2013-05-20 23:30:00,
2013-05-20 18:40:00,75.4,56.0,29.50,SW,219,7.0,7.0,51,0.00,,,0.00,350,Wunderground v.1.15,2013-05-20 23:40:00,
2013-05-20 18:50:00,75.8,56.4,29.50,WSW,252,4.0,4.0,51,0.00,,,0.00,98,Wunderground v.1.15,2013-05-20 23:50:00,
2013-05-20 19:00:00,75.3,53.7,29.50,WSW,238,5.0,5.0,47,0.00,,,0.00,83,Wunderground v.1.15,2013-05-21 00:00:00,
2013-05-20 19:10:00,75.8,54.7,29.50,WSW,238,2.0,2.0,48,0.00,,,0.00,243,Wunderground v.1.15,2013-05-21 00:10:00,
2013-05-20 19:20:00,76.7,55.5,29.50,WSW,240,3.0,3.0,48,0.00,,,0.00,223,Wunderground v.1.15,2013-05-21 00:20:00,
2013-05-20 19:30:00,76.8,53.2,29.50,West,266,2.0,3.0,44,0.00,,,0.00,200,Wunderground v.1.15,2013-05-21 00:30:00,
2013-05-20 19:40:00,76.1,53.8,29.50,WSW,240,2.0,2.0,46,0.00,,,0.00,153,Wunderground v.1.15,2013-05-21 00:40:00,
2013-05-20 19:50:00,75.1,52.9,29.51,WSW,239,2.0,2.0,46,0.00,,,0.00,63,Wunderground v.1.15,2013-05-21 00:50:00,
2013-05-20 20:00:00,73.5,52.6,29.51,WSW,250,2.0,2.0,48,0.00,,,0.00,33,Wunderground v.1.15,2013-05-21 01:00:00,
2013-05-20 20:10:00,72.5,53.3,29.52,WSW,238,0.0,0.0,51,0.00,,,0.00,19,Wunderground v.1.15,2013-05-21 01:10:00,
2013-05-20 20:20:00,71.8,52.2,29.52,SW,229,0.0,1.0,50,0.00,,,0.00,19,Wunderground v.1.15,2013-05-21 01:20:00,
2013-05-20 20:30:00,71.5,51.9,29.52,WSW,245,1.0,1.0,50,0.00,,,0.00,9,Wunderground v.1.15,2013-05-21 01:30:00,
2013-05-20 20:40:00,70.8,51.2,29.52,WSW,240,0.0,0.0,50,0.00,,,0.00,0,Wunderground v.1.15,2013-05-21 01:40:00,
2013-05-20 20:50:00,70.1,50.6,29.53,SSW,213,1.0,5.0,50,0.00,,,0.00,0,Wunderground v.1.15,2013-05-21 01:50:00,
2013-05-20 21:00:00,69.6,50.7,29.53,SW,229,0.0,0.0,51,0.00,,,0.00,0,Wunderground v.1.15,2013-05-21 02:00:00,
2013-05-20 21:10:00,68.4,50.6,29.52,SW,234,0.0,0.0,53,0.00,,,0.00,0,Wunderground v.1.15,2013-05-21 02:10:00,
2013-05-20 21:20:00,67.8,50.5,29.52,SW,229,0.0,0.0,54,0.00,,,0.00,0,Wunderground v.1.15,2013-05-21 02:20:00,
2013-05-20 21:30:00,67.4,49.7,29.52,SW,233,0.0,0.0,53,0.00,,,0.00,0,Wunderground v.1.15,2013-05-21 02:30:00,
2013-05-20 21:40:00,67.6,49.9,29.53,SW,235,1.0,2.0,53,0.00,,,0.00,0,Wunderground v.1.15,2013-05-21 02:40:00,
2013-05-20 21:50:00,67.9,49.1,29.53,WSW,238,2.0,2.0,51,0.00,,,0.00,0,Wunderground v.1.15,2013-05-21 02:50:00,
2013-05-20 22:00:00,67.6,49.9,29.53,WSW,243,0.0,0.0,53,0.00,,,0.00,0,Wunderground v.1.15,2013-05-21 03:00:00,
2013-05-20 22:10:00,67.3,49.6,29.54,SW,234,0.0,0.0,53,0.00,,,0.00,0,Wunderground v.1.15,2013-05-21 03:10:00,
2013-05-20 22:20:00,67.3,50.1,29.54,West,267,1.0,1.0,54,0.00,,,0.00,0,Wunderground v.1.15,2013-05-21 03:20:00,
2013-05-20 22:30:00,66.6,50.9,29.54,West,267,0.0,0.0,57,0.00,,,0.00,0,Wunderground v.1.15,2013-05-21 03:30:00,
2013-05-20 22:40:00,65.6,50.9,29.55,WSW,247,0.0,0.0,59,0.00,,,0.00,0,Wunderground v.1.15,2013-05-21 03:40:00,
2013-05-20 22:50:00,64.8,50.6,29.55,SW,220,0.0,0.0,60,0.00,,,0.00,0,Wunderground v.1.15,2013-05-21 03:50:00,
2013-05-20 23:00:00,64.0,50.7,29.55,WSW,258,0.0,0.0,62,0.00,,,0.00,0,Wunderground v.1.15,2013-05-21 04:00:00,
2013-05-20 23:10:00,63.9,50.6,29.55,WSW,245,0.0,0.0,62,0.00,,,0.00,0,Wunderground v.1.15,2013-05-21 04:10:00,
2013-05-20 23:20:00,63.5,51.1,29.55,WSW,238,0.0,0.0,64,0.00,,,0.00,0,Wunderground v.1.15,2013-05-21 04:20:00,
2013-05-20 23:30:00,62.9,51.4,29.55,WSW,244,0.0,0.0,66,0.00,,,0.00,0,Wunderground v.1.15,2013-05-21 04:30:00,
2013-05-20 23:40:00,62.7,51.6,29.56,SW,236,1.0,1.0,67,0.00,,,0.00,0,Wunderground v.1.15,2013-05-21 04:40:00,
2013-05-20 23:50:00,62.3,52.4,29.56,WSW,240,0.0,0.0,70,0.00,,,0.00,0,Wunderground v.1.15,2013-05-21 04:50:00,